Terminal Aerodrome Forecast
Issued by NWS Sterling, VA

Current Version | Previous Version | Graphics & Text | Print | Product List | Glossary On
Versions: 1 2 3 4 5 6 7 8 9 10 11 12 13 14 15 16 17
000
FTUS41 KLWX 082300
TAFMRB
TAF
KMRB 082339Z 0900/0924 17007KT P6SM FEW110
     FM090300 26007KT P6SM SCT050 BKN200
     FM090700 VRB03KT P6SM SCT060 BKN200
     FM091500 25007KT P6SM FEW060 SCT100=

USA.gov is the U.S. government's official web portal to all federal, state and local government web resources and services.